Terminal Aerodrome Forecast
Issued by NWS Portland, OR

Home | Current Version | Previous Version | Text Only | Print | Product List | Glossary On
Versions: 1 2 3 4 5 6 7 8 9 10 11 12 13 14 15 16 17 18
000
FTUS46 KPQR 211737
TAFTTD
TAF
KTTD 211737Z 2118/2218 09015G27KT P6SM -RA SCT035 OVC050
     FM212000 09015G27KT P6SM -RA SCT035 BKN050 OVC090
     FM220400 09013KT P6SM -SHRA SCT035 OVC050
     FM220900 09012KT P6SM VCSH BKN025 OVC040=

USA.gov is the U.S. government's official web portal to all federal, state and local government web resources and services.